Time;durP1;ratioP1;P1;durP2;ratioP2;P2;SDS_P1;SDS_P2;PMS_P1;PMS_P2;Temp;Humidity;BMP_temperature;BMP_pressure;BME280_temperature;BME280_humidity;BME280_pressure;Samples;Min_cycle;Max_cycle;Signal;HPM_P1;HPM_P2
2023/03/31 00:01:05;;;;;;;7.63;2.47;;;17.20;62.90;;;;;;6214942;23;20440;-65
2023/03/31 00:03:37;;;;;;;3.63;1.87;;;17.20;62.60;;;;;;6214522;23;20401;-67
2023/03/31 00:06:05;;;;;;;4.07;1.80;;;17.20;62.60;;;;;;6215119;23;20403;-67
2023/03/31 00:08:35;;;;;;;5.60;2.37;;;17.20;62.90;;;;;;6214804;23;20787;-67
2023/03/31 00:11:06;;;;;;;4.57;2.03;;;17.20;62.50;;;;;;6214433;23;20433;-66
2023/03/31 00:13:33;;;;;;;4.67;1.90;;;17.20;62.60;;;;;;6214474;23;20425;-66
2023/03/31 00:16:02;;;;;;;5.97;2.00;;;17.30;63.10;;;;;;6214379;23;20405;-67
2023/03/31 00:18:29;;;;;;;5.20;2.07;;;17.30;63.30;;;;;;6213899;23;20405;-66
2023/03/31 00:21:06;;;;;;;5.40;1.83;;;17.30;63.30;;;;;;6214280;23;20409;-66
2023/03/31 00:23:34;;;;;;;4.57;2.03;;;17.30;63.00;;;;;;6214588;23;20483;-66
2023/03/31 00:26:01;;;;;;;4.57;1.83;;;17.30;63.00;;;;;;6214392;23;20412;-65
2023/03/31 00:28:29;;;;;;;5.67;2.10;;;17.30;62.90;;;;;;6214137;23;20409;-66
2023/03/31 00:31:01;;;;;;;4.67;1.80;;;17.30;63.10;;;;;;6213717;23;20456;-66
2023/03/31 00:33:28;;;;;;;4.77;2.00;;;17.30;63.00;;;;;;6213862;23;20559;-66
2023/03/31 00:35:55;;;;;;;3.57;1.90;;;17.20;62.40;;;;;;6213261;23;20425;-66
2023/03/31 00:38:22;;;;;;;6.23;2.47;;;17.20;62.70;;;;;;6213679;23;20405;-66
2023/03/31 00:40:49;;;;;;;4.77;1.87;;;17.20;62.20;;;;;;6214274;23;20405;-65
2023/03/31 00:43:28;;;;;;;4.53;1.93;;;17.20;61.80;;;;;;6213647;23;20527;-65
2023/03/31 00:46:04;;;;;;;3.90;2.07;;;17.20;61.90;;;;;;6214201;23;20393;-66
2023/03/31 00:48:32;;;;;;;5.57;2.00;;;17.20;61.90;;;;;;6214752;23;20389;-65
2023/03/31 00:51:03;;;;;;;4.73;2.00;;;17.10;62.10;;;;;;6214256;23;20428;-66
2023/03/31 00:53:34;;;;;;;4.80;1.93;;;17.10;62.20;;;;;;6214146;23;20483;-65
2023/03/31 00:56:05;;;;;;;4.07;1.83;;;17.10;62.30;;;;;;6214269;23;20420;-66
2023/03/31 00:58:33;;;;;;;5.87;2.27;;;17.20;62.50;;;;;;6214556;23;20389;-66
2023/03/31 01:01:03;;;;;;;6.03;1.97;;;17.20;62.40;;;;;;6213715;23;20413;-65
2023/03/31 01:03:33;;;;;;;5.47;1.87;;;17.20;62.60;;;;;;6214062;23;20429;-66
2023/03/31 01:06:03;;;;;;;6.33;2.20;;;17.10;62.60;;;;;;6214278;23;20436;-66
2023/03/31 01:08:31;;;;;;;4.83;2.00;;;17.00;63.20;;;;;;6214011;23;20404;-66
2023/03/31 01:11:02;;;;;;;5.13;2.10;;;17.00;63.80;;;;;;6214126;23;20399;-66
2023/03/31 01:13:29;;;;;;;6.97;2.10;;;16.90;64.20;;;;;;6214036;23;20512;-66
2023/03/31 01:15:56;;;;;;;4.37;1.87;;;16.90;64.60;;;;;;6213699;23;20435;-66
2023/03/31 01:18:26;;;;;;;6.47;2.23;;;16.90;64.40;;;;;;6214179;23;20405;-67
2023/03/31 01:21:22;;;;;;;4.43;2.33;;;16.90;64.40;;;;;;6212881;23;20413;-67
2023/03/31 01:24:17;;;;;;;4.73;1.90;;;16.80;63.80;;;;;;6211551;22;20413;-67
2023/03/31 01:27:01;;;;;;;3.13;1.60;;;16.80;64.50;;;;;;6212882;23;20396;-67
2023/03/31 01:29:55;;;;;;;4.87;2.00;;;16.80;64.60;;;;;;6213181;23;20922;-66
2023/03/31 01:32:50;;;;;;;4.43;1.60;;;16.80;64.80;;;;;;6213604;23;20396;-67
2023/03/31 01:35:53;;;;;;;5.17;1.67;;;16.80;65.00;;;;;;6213977;23;20435;-66
2023/03/31 01:38:43;;;;;;;3.00;1.70;;;16.80;65.20;;;;;;6211464;23;20423;-66
2023/03/31 01:41:26;;;;;;;3.10;1.60;;;16.70;64.90;;;;;;6213999;23;20435;-65
2023/03/31 01:44:04;;;;;;;7.33;2.00;;;16.60;64.90;;;;;;6213825;23;20392;-65
2023/03/31 01:46:35;;;;;;;4.77;1.63;;;16.50;65.10;;;;;;6213739;23;20718;-65
2023/03/31 01:49:15;;;;;;;3.33;1.53;;;16.50;65.20;;;;;;6213627;23;20914;-65
2023/03/31 01:51:49;;;;;;;5.33;1.80;;;16.50;64.90;;;;;;6214105;23;20441;-66
2023/03/31 01:54:20;;;;;;;4.40;1.47;;;16.40;65.00;;;;;;6214120;23;20432;-64
2023/03/31 01:56:52;;;;;;;5.33;2.17;;;16.40;65.10;;;;;;6213549;23;20393;-65
2023/03/31 01:59:25;;;;;;;4.93;1.70;;;16.30;64.40;;;;;;6214336;23;20772;-66
2023/03/31 02:01:57;;;;;;;4.97;2.27;;;16.30;65.20;;;;;;6214173;23;20824;-66
2023/03/31 02:04:30;;;;;;;5.67;1.73;;;16.30;65.40;;;;;;6213430;23;20394;-66
2023/03/31 02:07:02;;;;;;;5.20;1.80;;;16.30;65.40;;;;;;6214005;23;20389;-65
2023/03/31 02:09:35;;;;;;;3.50;1.70;;;16.30;65.80;;;;;;6214089;23;20389;-65
2023/03/31 02:12:07;;;;;;;4.83;2.07;;;16.30;65.80;;;;;;6214802;23;20398;-66
2023/03/31 02:14:38;;;;;;;6.83;1.90;;;16.40;66.20;;;;;;6215162;23;20432;-66
2023/03/31 02:17:07;;;;;;;5.13;2.00;;;16.40;66.20;;;;;;6215413;23;20397;-67
2023/03/31 02:19:40;;;;;;;5.70;2.00;;;16.40;66.80;;;;;;6214867;23;20415;-66
2023/03/31 02:22:08;;;;;;;3.87;1.80;;;16.30;67.00;;;;;;6215455;23;20459;-65
2023/03/31 02:24:39;;;;;;;6.80;2.40;;;16.30;67.50;;;;;;6214678;23;20484;-66
2023/03/31 02:27:15;;;;;;;4.37;2.13;;;16.20;68.00;;;;;;6215483;23;20691;-66
2023/03/31 02:29:42;;;;;;;4.60;1.70;;;16.30;68.50;;;;;;6214756;23;20393;-68
2023/03/31 02:32:16;;;;;;;4.70;1.77;;;16.30;68.70;;;;;;6214904;23;20409;-64
2023/03/31 02:34:43;;;;;;;5.90;2.40;;;16.30;69.90;;;;;;6214752;23;20433;-66
2023/03/31 02:37:10;;;;;;;5.23;2.20;;;16.30;69.30;;;;;;6215488;23;20425;-66
2023/03/31 02:39:41;;;;;;;4.20;2.20;;;16.30;69.20;;;;;;6214758;23;20405;-66
2023/03/31 02:42:09;;;;;;;4.93;2.10;;;16.30;69.10;;;;;;6214553;23;20926;-66
2023/03/31 02:44:38;;;;;;;6.63;2.27;;;16.30;69.90;;;;;;6214305;23;20391;-66
2023/03/31 02:47:08;;;;;;;3.67;2.10;;;16.40;68.90;;;;;;6214600;23;21070;-66
2023/03/31 02:49:37;;;;;;;6.37;2.50;;;16.40;68.90;;;;;;6214803;23;20429;-66
2023/03/31 02:52:41;;;;;;;5.20;2.60;;;16.40;68.80;;;;;;6214878;23;20424;-66
2023/03/31 02:55:19;;;;;;;4.30;1.90;;;16.50;69.20;;;;;;6197582;23;20421;-64
2023/03/31 02:58:05;;;;;;;4.83;2.33;;;16.50;69.00;;;;;;6214836;23;20734;-67
2023/03/31 03:00:45;;;;;;;3.73;2.20;;;16.50;69.00;;;;;;6214536;23;20399;-65
2023/03/31 03:03:28;;;;;;;7.87;2.40;;;16.50;69.10;;;;;;6214317;23;20908;-66
2023/03/31 03:06:04;;;;;;;3.83;2.20;;;16.40;69.10;;;;;;6215152;23;20396;-65
2023/03/31 03:08:41;;;;;;;5.67;2.30;;;16.30;69.30;;;;;;6214820;23;20770;-66
2023/03/31 03:11:16;;;;;;;5.83;2.60;;;16.20;69.60;;;;;;6215053;23;20687;-65
2023/03/31 03:13:50;;;;;;;6.13;2.07;;;16.20;70.60;;;;;;6214797;23;20500;-65
2023/03/31 03:16:23;;;;;;;7.17;2.57;;;16.20;70.00;;;;;;6214887;23;20524;-66
2023/03/31 03:18:57;;;;;;;7.30;2.60;;;16.20;69.90;;;;;;6214622;23;20394;-65
2023/03/31 03:21:24;;;;;;;3.97;2.50;;;16.30;69.90;;;;;;6214865;23;20413;-66
2023/03/31 03:23:51;;;;;;;4.83;2.70;;;16.30;69.70;;;;;;6214194;23;20401;-66
2023/03/31 03:26:20;;;;;;;4.40;2.40;;;16.30;69.80;;;;;;6214077;23;20416;-66
2023/03/31 03:28:48;;;;;;;4.63;2.10;;;16.30;69.60;;;;;;6214569;23;20433;-67
2023/03/31 03:31:15;;;;;;;2.90;2.10;;;16.30;69.40;;;;;;6214011;23;20395;-67
2023/03/31 03:33:42;;;;;;;4.70;2.23;;;16.30;69.40;;;;;;6214024;23;20455;-67
2023/03/31 03:36:10;;;;;;;7.33;2.20;;;16.30;69.30;;;;;;6214560;23;20455;-66
2023/03/31 03:38:36;;;;;;;2.53;1.83;;;16.30;69.00;;;;;;6214409;23;20404;-66
2023/03/31 03:41:03;;;;;;;6.33;2.50;;;16.40;69.30;;;;;;6214048;23;20420;-67
2023/03/31 03:43:30;;;;;;;3.90;2.03;;;16.40;69.20;;;;;;6214089;23;20411;-66
2023/03/31 03:45:59;;;;;;;4.90;2.10;;;16.30;68.90;;;;;;6214270;23;20773;-66
2023/03/31 03:48:26;;;;;;;4.23;2.43;;;16.40;69.40;;;;;;6214501;23;20433;-64
2023/03/31 03:50:53;;;;;;;4.23;2.20;;;16.30;69.50;;;;;;6214226;23;20416;-64
2023/03/31 03:53:21;;;;;;;3.53;1.90;;;16.30;69.50;;;;;;6214559;23;20476;-67
2023/03/31 03:55:48;;;;;;;4.43;2.10;;;16.30;69.30;;;;;;6214767;23;20508;-65
2023/03/31 03:58:15;;;;;;;6.73;2.30;;;16.20;68.90;;;;;;6214983;23;20432;-65
2023/03/31 04:00:44;;;;;;;5.80;2.10;;;16.20;68.90;;;;;;6214821;23;20409;-65
2023/03/31 04:03:12;;;;;;;5.73;2.57;;;16.20;68.80;;;;;;6214811;23;20898;-65
2023/03/31 04:05:39;;;;;;;4.40;2.17;;;16.10;69.80;;;;;;6215334;23;20799;-65
2023/03/31 04:08:07;;;;;;;6.87;2.80;;;16.10;69.10;;;;;;6214465;23;20885;-66
2023/03/31 04:10:34;;;;;;;5.53;2.20;;;16.10;69.10;;;;;;6215024;23;20395;-68
2023/03/31 04:13:01;;;;;;;3.10;2.00;;;16.00;68.90;;;;;;6214450;23;20413;-68
2023/03/31 04:15:28;;;;;;;4.07;2.23;;;16.10;68.60;;;;;;6213732;23;20918;-66
2023/03/31 04:17:56;;;;;;;3.67;1.97;;;16.10;69.50;;;;;;6214297;23;20404;-67
2023/03/31 04:20:26;;;;;;;3.90;2.30;;;16.10;68.40;;;;;;6213706;23;20444;-66
2023/03/31 04:22:53;;;;;;;7.07;2.27;;;16.00;68.40;;;;;;6213868;23;20437;-65
2023/03/31 04:25:21;;;;;;;3.40;2.23;;;16.00;68.20;;;;;;6214242;23;20401;-65
2023/03/31 04:27:53;;;;;;;3.27;2.00;;;16.00;68.50;;;;;;6213707;23;20413;-65
2023/03/31 04:30:22;;;;;;;3.63;2.20;;;16.00;68.50;;;;;;6213594;23;20433;-67
2023/03/31 04:32:50;;;;;;;2.20;1.80;;;16.00;68.50;;;;;;6214304;23;20405;-65
2023/03/31 04:35:19;;;;;;;4.37;1.90;;;16.00;68.50;;;;;;6213988;23;20740;-65
2023/03/31 04:37:48;;;;;;;4.50;2.40;;;16.00;68.10;;;;;;6213475;23;20425;-65
2023/03/31 04:40:15;;;;;;;4.50;2.17;;;15.90;68.30;;;;;;6213907;23;20405;-66
2023/03/31 04:42:42;;;;;;;4.13;2.30;;;16.00;68.50;;;;;;6213838;23;20483;-66
2023/03/31 04:45:10;;;;;;;5.00;2.47;;;16.00;68.30;;;;;;6214218;23;20480;-65
2023/03/31 04:47:37;;;;;;;3.03;2.63;;;16.00;68.20;;;;;;6214036;23;20431;-65
2023/03/31 04:50:05;;;;;;;4.43;2.50;;;16.00;68.20;;;;;;6213097;23;20431;-66
2023/03/31 04:52:32;;;;;;;2.77;2.13;;;16.00;68.10;;;;;;6214168;23;20500;-66
2023/03/31 04:55:00;;;;;;;5.20;2.40;;;16.00;68.30;;;;;;6213468;23;20441;-66
2023/03/31 04:57:27;;;;;;;3.63;2.20;;;16.00;68.50;;;;;;6213168;23;20429;-65
2023/03/31 04:59:53;;;;;;;5.43;2.73;;;16.00;68.50;;;;;;6213925;23;20520;-65
2023/03/31 05:02:22;;;;;;;4.40;2.70;;;15.90;69.70;;;;;;6213483;23;20409;-65
2023/03/31 05:04:49;;;;;;;6.53;2.40;;;16.00;69.50;;;;;;6213752;23;20423;-65
2023/03/31 05:07:16;;;;;;;6.53;2.40;;;16.00;70.00;;;;;;6213806;23;20500;-65
2023/03/31 05:09:43;;;;;;;4.37;2.50;;;15.90;70.90;;;;;;6214038;23;20746;-65
2023/03/31 05:12:12;;;;;;;5.77;2.40;;;15.90;71.30;;;;;;6213089;23;20393;-66
2023/03/31 05:14:38;;;;;;;4.27;2.70;;;15.90;71.80;;;;;;6213227;23;20480;-67
2023/03/31 05:17:05;;;;;;;4.20;2.17;;;15.90;71.90;;;;;;6214191;23;20519;-65
2023/03/31 05:19:32;;;;;;;4.87;2.57;;;15.80;72.10;;;;;;6213388;23;20410;-65
2023/03/31 05:21:59;;;;;;;5.67;2.77;;;15.80;72.30;;;;;;6213571;23;20411;-66
2023/03/31 05:24:27;;;;;;;4.00;2.50;;;15.70;73.60;;;;;;6213585;23;20707;-66
2023/03/31 05:26:54;;;;;;;4.93;2.57;;;15.70;73.20;;;;;;6213170;23;20632;-66
2023/03/31 05:29:23;;;;;;;4.63;2.67;;;15.70;73.70;;;;;;6213511;23;20438;-66
2023/03/31 05:31:52;;;;;;;6.50;2.80;;;15.80;74.10;;;;;;6213947;23;20409;-66
2023/03/31 05:34:19;;;;;;;3.37;2.67;;;15.80;74.00;;;;;;6213357;23;20480;-65
2023/03/31 05:36:46;;;;;;;6.90;2.83;;;15.80;74.10;;;;;;6214592;23;20425;-65
2023/03/31 05:39:14;;;;;;;5.03;2.80;;;15.80;74.10;;;;;;6214042;23;20898;-65
2023/03/31 05:41:41;;;;;;;5.23;2.57;;;15.80;73.50;;;;;;6213221;23;20479;-66
2023/03/31 05:44:08;;;;;;;5.73;3.07;;;15.70;73.60;;;;;;6212911;23;20385;-64
2023/03/31 05:46:36;;;;;;;4.63;3.03;;;15.60;74.30;;;;;;6214516;23;20412;-66
2023/03/31 05:49:03;;;;;;;8.47;3.27;;;15.50;74.50;;;;;;6215845;23;20435;-66
2023/03/31 05:51:30;;;;;;;5.90;3.50;;;15.50;75.20;;;;;;6216057;23;20415;-65
2023/03/31 05:53:56;;;;;;;5.23;2.87;;;15.40;75.50;;;;;;6215570;23;20431;-66
2023/03/31 05:56:26;;;;;;;6.90;3.30;;;15.40;75.60;;;;;;6215929;23;20527;-66
2023/03/31 05:58:53;;;;;;;9.23;3.27;;;15.40;75.60;;;;;;6215801;23;20467;-66
2023/03/31 06:01:21;;;;;;;7.57;3.60;;;15.40;76.00;;;;;;6216044;23;20463;-66
2023/03/31 06:03:50;;;;;;;5.10;3.13;;;15.40;76.20;;;;;;6215622;23;20397;-66
2023/03/31 06:06:17;;;;;;;7.07;3.13;;;15.30;76.30;;;;;;6216105;23;20412;-66
2023/03/31 06:08:44;;;;;;;7.23;3.63;;;15.30;76.90;;;;;;6163307;23;20519;-69
2023/03/31 06:11:14;;;;;;;7.67;3.43;;;15.30;77.30;;;;;;6215917;23;20799;-68
2023/03/31 06:13:41;;;;;;;6.57;3.60;;;15.30;77.40;;;;;;6215007;23;20724;-68
2023/03/31 06:16:10;;;;;;;6.83;4.00;;;15.40;77.70;;;;;;6215276;23;21116;-67
2023/03/31 06:18:37;;;;;;;9.70;3.90;;;15.40;77.90;;;;;;6215028;23;20413;-67
2023/03/31 06:21:06;;;;;;;7.03;4.40;;;15.40;78.10;;;;;;6214406;23;20460;-68
2023/03/31 06:23:34;;;;;;;7.03;3.90;;;15.40;78.20;;;;;;6214442;23;20409;-67
2023/03/31 06:26:02;;;;;;;7.40;4.50;;;15.40;78.20;;;;;;6214886;23;20411;-68
2023/03/31 06:28:30;;;;;;;9.73;4.07;;;15.40;78.60;;;;;;6216080;23;20428;-67
2023/03/31 06:31:04;;;;;;;7.37;4.00;;;15.30;78.80;;;;;;6215137;23;20892;-68
2023/03/31 06:33:31;;;;;;;9.73;4.13;;;15.20;79.10;;;;;;6215143;23;20893;-67
2023/03/31 06:35:58;;;;;;;7.13;3.90;;;15.10;79.30;;;;;;6215825;23;20853;-69
2023/03/31 06:38:26;;;;;;;7.03;3.40;;;15.20;79.90;;;;;;6215016;23;20432;-68
2023/03/31 06:40:53;;;;;;;6.00;3.50;;;15.10;80.40;;;;;;6215137;23;20435;-68
2023/03/31 06:43:20;;;;;;;7.23;4.10;;;15.10;80.50;;;;;;6215388;23;20408;-68
2023/03/31 06:45:47;;;;;;;6.43;3.53;;;15.10;80.80;;;;;;6215035;23;20401;-68
2023/03/31 06:48:14;;;;;;;7.27;4.00;;;15.10;81.10;;;;;;6215015;23;20496;-69
2023/03/31 06:50:42;;;;;;;7.73;4.47;;;15.10;81.60;;;;;;6214318;23;20405;-67
2023/03/31 06:53:10;;;;;;;5.63;4.17;;;15.20;82.20;;;;;;6213870;23;20527;-68
2023/03/31 06:55:38;;;;;;;5.70;3.80;;;15.20;81.80;;;;;;6213851;23;20472;-67
2023/03/31 06:58:05;;;;;;;6.60;3.90;;;15.10;81.80;;;;;;6214056;23;20405;-68
2023/03/31 07:00:33;;;;;;;4.93;3.40;;;15.20;81.60;;;;;;6213849;23;20397;-69
2023/03/31 07:03:00;;;;;;;7.93;3.77;;;15.20;80.90;;;;;;6214342;23;20443;-69
2023/03/31 07:05:28;;;;;;;7.07;3.53;;;15.30;80.80;;;;;;6213863;23;20432;-68
2023/03/31 07:07:55;;;;;;;5.70;3.87;;;15.40;80.80;;;;;;6214016;23;20913;-68
2023/03/31 07:10:22;;;;;;;7.53;3.30;;;15.40;80.90;;;;;;6214229;23;20487;-68
2023/03/31 07:12:50;;;;;;;7.00;3.23;;;15.50;80.50;;;;;;6214321;23;20409;-69
2023/03/31 07:15:17;;;;;;;7.03;3.43;;;15.60;80.10;;;;;;6214019;23;20532;-69
2023/03/31 07:17:44;;;;;;;6.77;3.70;;;15.60;80.20;;;;;;6213772;23;20490;-69
2023/03/31 07:20:13;;;;;;;5.10;2.90;;;15.60;79.50;;;;;;6213435;23;20491;-68
2023/03/31 07:22:41;;;;;;;4.40;2.70;;;15.70;79.50;;;;;;6213299;23;20421;-68
2023/03/31 07:25:08;;;;;;;4.43;2.80;;;15.70;79.30;;;;;;6213188;23;20455;-68
2023/03/31 07:27:35;;;;;;;5.33;2.60;;;15.80;78.70;;;;;;6212998;23;20934;-67
2023/03/31 07:30:04;;;;;;;2.37;2.10;;;15.90;78.30;;;;;;6212817;23;20435;-68
2023/03/31 07:32:32;;;;;;;5.47;2.70;;;16.00;78.50;;;;;;6213247;23;20400;-69
2023/03/31 07:34:58;;;;;;;2.50;1.90;;;16.10;77.60;;;;;;6212780;23;20496;-68
2023/03/31 07:37:26;;;;;;;3.17;2.03;;;16.10;76.80;;;;;;6213242;23;20512;-69
2023/03/31 07:39:52;;;;;;;3.43;2.17;;;16.10;75.90;;;;;;6213057;23;20434;-69
2023/03/31 07:42:19;;;;;;;2.10;1.80;;;16.20;75.70;;;;;;6213228;23;20495;-68
2023/03/31 07:44:46;;;;;;;2.17;1.70;;;16.40;74.20;;;;;;6212625;23;20401;-69
2023/03/31 07:47:14;;;;;;;3.30;1.83;;;16.40;73.00;;;;;;6213042;23;20412;-68
2023/03/31 07:49:41;;;;;;;4.23;1.70;;;16.50;73.20;;;;;;6212968;23;20443;-68
2023/03/31 07:52:08;;;;;;;2.97;1.90;;;16.60;72.10;;;;;;6212846;23;20423;-68
2023/03/31 07:54:35;;;;;;;2.77;1.80;;;16.50;72.10;;;;;;6212836;23;20552;-68
2023/03/31 07:57:04;;;;;;;2.90;1.70;;;16.60;72.60;;;;;;6213204;23;20436;-68
2023/03/31 07:59:31;;;;;;;4.37;1.77;;;16.60;72.10;;;;;;6212847;23;20816;-68
2023/03/31 08:01:58;;;;;;;3.93;1.70;;;16.60;70.40;;;;;;6213115;23;20417;-69
2023/03/31 08:04:27;;;;;;;3.63;1.90;;;16.60;71.40;;;;;;6212482;23;20409;-68
2023/03/31 08:06:54;;;;;;;5.90;1.83;;;16.60;70.70;;;;;;6212476;23;20902;-68
2023/03/31 08:09:22;;;;;;;2.97;1.70;;;16.50;70.10;;;;;;6212594;23;20894;-68
2023/03/31 08:11:50;;;;;;;2.37;1.50;;;16.60;69.80;;;;;;6213261;23;20556;-68
2023/03/31 08:14:16;;;;;;;2.10;1.60;;;16.60;69.70;;;;;;6212175;23;20893;-68
2023/03/31 08:16:43;;;;;;;3.03;1.80;;;16.60;69.30;;;;;;6213085;23;20405;-68
2023/03/31 08:19:10;;;;;;;3.20;1.70;;;16.70;68.90;;;;;;6212750;23;20487;-68
2023/03/31 08:21:38;;;;;;;2.83;1.57;;;16.80;68.70;;;;;;6212604;23;20405;-68
2023/03/31 08:24:05;;;;;;;3.37;1.60;;;16.90;69.10;;;;;;6212288;23;20488;-68
2023/03/31 08:26:33;;;;;;;4.67;1.97;;;16.90;68.30;;;;;;6212924;23;20484;-68
2023/03/31 08:29:00;;;;;;;3.07;1.80;;;16.90;67.90;;;;;;6212395;23;20892;-68
2023/03/31 08:31:27;;;;;;;3.77;1.73;;;16.90;68.00;;;;;;6212772;23;20409;-68
2023/03/31 08:33:56;;;;;;;2.93;1.83;;;16.90;67.70;;;;;;6212341;23;20413;-67
2023/03/31 08:36:23;;;;;;;2.87;1.80;;;17.00;67.90;;;;;;6212287;23;20433;-68
2023/03/31 08:38:53;;;;;;;4.13;1.73;;;17.10;67.50;;;;;;6212851;23;20566;-68
2023/03/31 08:41:33;;;;;;;3.43;1.73;;;17.20;67.70;;;;;;6212357;23;21050;-68
2023/03/31 08:44:05;;;;;;;3.97;1.80;;;17.10;66.90;;;;;;6212447;23;20850;-69
2023/03/31 08:46:34;;;;;;;3.73;2.00;;;17.20;67.40;;;;;;6212443;23;20451;-69
2023/03/31 08:49:02;;;;;;;3.80;1.83;;;17.30;67.50;;;;;;6212284;23;20408;-68
2023/03/31 08:51:32;;;;;;;4.40;2.30;;;17.40;66.90;;;;;;6212225;23;20417;-67
2023/03/31 08:54:03;;;;;;;4.87;1.90;;;17.50;66.70;;;;;;6212550;23;20479;-68
2023/03/31 08:56:33;;;;;;;3.77;1.93;;;17.60;66.50;;;;;;6212430;23;20516;-68
2023/03/31 08:59:01;;;;;;;6.33;1.80;;;17.70;66.30;;;;;;6212843;23;20448;-68
2023/03/31 09:01:48;;;;;;;4.57;2.20;;;17.80;66.10;;;;;;6211992;23;20412;-68
2023/03/31 09:04:27;;;;;;;2.47;1.83;;;17.70;64.60;;;;;;6212152;23;20389;-68
2023/03/31 09:07:01;;;;;;;2.97;1.67;;;17.80;64.00;;;;;;6212808;23;20646;-67
2023/03/31 09:09:40;;;;;;;3.03;1.33;;;17.90;65.10;;;;;;6212294;23;20858;-68
2023/03/31 09:12:14;;;;;;;3.53;1.70;;;17.90;63.60;;;;;;6212910;23;20480;-69
2023/03/31 09:14:44;;;;;;;3.00;1.60;;;18.00;63.80;;;;;;6213024;23;20524;-67
2023/03/31 09:17:23;;;;;;;5.27;1.60;;;18.00;63.40;;;;;;6213628;23;20881;-68
2023/03/31 09:19:55;;;;;;;3.70;1.70;;;18.10;63.10;;;;;;6212628;23;20293;-67
2023/03/31 09:22:25;;;;;;;5.07;1.93;;;18.20;63.20;;;;;;6213037;23;20245;-68
2023/03/31 09:24:59;;;;;;;3.73;1.90;;;18.40;62.60;;;;;;6213133;23;20408;-69
2023/03/31 09:27:30;;;;;;;5.50;1.90;;;18.40;62.10;;;;;;6213197;23;20177;-68
2023/03/31 09:30:03;;;;;;;4.77;2.07;;;18.50;61.40;;;;;;6213362;23;20186;-68
2023/03/31 09:32:32;;;;;;;2.53;1.37;;;18.60;61.60;;;;;;6212912;23;20428;-68
2023/03/31 09:35:01;;;;;;;4.00;1.70;;;18.70;60.70;;;;;;6213469;23;20207;-68
2023/03/31 09:37:31;;;;;;;5.00;1.90;;;18.60;61.30;;;;;;6214339;23;20248;-67
2023/03/31 09:40:06;;;;;;;3.73;1.70;;;18.60;60.00;;;;;;6213165;23;20829;-67
2023/03/31 09:42:34;;;;;;;5.73;2.10;;;18.40;60.00;;;;;;6213536;23;20220;-69
2023/03/31 09:45:01;;;;;;;4.03;1.70;;;18.30;59.30;;;;;;6213571;23;20212;-67
2023/03/31 09:47:33;;;;;;;2.57;1.83;;;18.30;60.30;;;;;;6214017;23;20213;-68
2023/03/31 09:50:00;;;;;;;5.17;2.00;;;18.40;60.40;;;;;;6213854;23;20173;-68
2023/03/31 09:52:30;;;;;;;4.00;2.30;;;18.50;60.50;;;;;;6214288;23;20425;-69
2023/03/31 09:55:01;;;;;;;8.33;1.80;;;18.60;60.00;;;;;;6213739;23;20188;-66
2023/03/31 09:57:30;;;;;;;4.80;2.00;;;18.70;60.20;;;;;;6214484;23;20515;-68
2023/03/31 10:00:06;;;;;;;7.47;1.87;;;18.90;58.80;;;;;;6214194;23;20264;-67
2023/03/31 10:02:39;;;;;;;5.93;2.20;;;19.00;58.60;;;;;;6212764;23;20393;-68
2023/03/31 10:05:17;;;;;;;7.13;1.83;;;18.90;58.30;;;;;;6212969;23;20400;-68
2023/03/31 10:07:45;;;;;;;5.57;2.20;;;19.10;58.30;;;;;;6213376;23;20162;-68
2023/03/31 10:10:32;;;;;;;5.97;1.97;;;19.30;58.80;;;;;;6213090;23;20209;-69
2023/03/31 10:13:02;;;;;;;4.60;2.30;;;19.50;57.80;;;;;;6212868;23;20245;-68
2023/03/31 10:15:29;;;;;;;4.80;2.53;;;19.60;57.20;;;;;;6212670;23;20286;-68
2023/03/31 10:17:59;;;;;;;4.47;2.03;;;19.60;56.60;;;;;;6213268;23;20212;-68
2023/03/31 10:20:33;;;;;;;4.63;2.50;;;19.60;56.70;;;;;;6213254;23;20178;-69
2023/03/31 10:23:05;;;;;;;8.93;2.10;;;19.60;56.30;;;;;;6212996;23;20486;-69
2023/03/31 10:25:34;;;;;;;7.63;2.13;;;19.60;56.70;;;;;;6213193;23;20167;-70
2023/03/31 10:28:02;;;;;;;2.90;1.93;;;19.50;55.70;;;;;;6213023;23;20620;-70
2023/03/31 10:30:36;;;;;;;6.10;2.20;;;19.30;54.00;;;;;;6212607;23;20221;-69
2023/03/31 10:33:07;;;;;;;5.87;2.40;;;19.10;52.90;;;;;;6212881;23;20258;-71
2023/03/31 10:35:36;;;;;;;4.23;2.00;;;18.90;53.20;;;;;;6215179;23;20233;-70
2023/03/31 10:38:06;;;;;;;7.00;2.50;;;18.90;53.60;;;;;;6214154;23;20201;-70
2023/03/31 10:40:36;;;;;;;5.33;2.00;;;18.70;53.50;;;;;;6214918;23;20201;-69
2023/03/31 10:43:09;;;;;;;5.93;2.07;;;18.80;53.20;;;;;;6214962;23;20405;-70
2023/03/31 10:45:44;;;;;;;5.87;2.10;;;18.80;53.00;;;;;;6214624;23;20477;-69
2023/03/31 10:48:19;;;;;;;6.57;2.40;;;18.80;53.30;;;;;;6215028;23;20682;-70
2023/03/31 10:50:46;;;;;;;6.37;2.70;;;18.60;53.50;;;;;;6214760;23;20904;-69
2023/03/31 10:53:14;;;;;;;7.27;2.40;;;18.60;54.10;;;;;;6214444;23;20527;-70
2023/03/31 10:55:56;;;;;;;3.53;1.40;;;18.50;56.90;;;;;;6215095;23;20186;-70
2023/03/31 10:58:44;;;;;;;2.60;1.40;;;18.30;57.60;;;;;;6214593;23;20394;-70
2023/03/31 11:01:26;;;;;;;3.50;1.43;;;18.00;57.70;;;;;;6214364;23;20456;-70
2023/03/31 11:04:21;;;;;;;3.07;1.60;;;17.90;57.80;;;;;;6214479;23;20162;-69
2023/03/31 11:06:55;;;;;;;5.30;1.47;;;17.90;57.90;;;;;;6215062;23;20201;-69
2023/03/31 11:09:35;;;;;;;2.47;1.27;;;17.70;57.60;;;;;;6214700;23;20200;-70
2023/03/31 11:12:14;;;;;;;2.73;1.23;;;17.60;57.40;;;;;;6214597;23;20166;-70
2023/03/31 11:14:54;;;;;;;3.00;1.30;;;17.40;57.00;;;;;;6214432;23;20472;-69
2023/03/31 11:17:35;;;;;;;2.13;1.00;;;17.20;56.50;;;;;;6215454;23;20500;-69
2023/03/31 11:20:14;;;;;;;1.57;0.80;;;17.10;57.20;;;;;;6214438;23;20709;-70
2023/03/31 11:22:51;;;;;;;2.17;0.80;;;17.00;57.20;;;;;;6214461;23;20389;-69
2023/03/31 11:25:25;;;;;;;1.87;0.90;;;16.90;57.20;;;;;;6214351;23;20429;-69
2023/03/31 11:28:19;;;;;;;2.20;1.00;;;16.90;57.10;;;;;;6214128;23;20396;-70
2023/03/31 11:30:52;;;;;;;1.53;0.87;;;16.90;56.40;;;;;;6207410;23;20452;-70
2023/03/31 11:33:32;;;;;;;1.07;0.90;;;16.70;56.40;;;;;;6214521;23;20428;-69
2023/03/31 11:36:13;;;;;;;2.27;1.00;;;16.70;56.20;;;;;;6215132;23;20511;-70
2023/03/31 11:39:15;;;;;;;2.13;1.00;;;16.70;55.90;;;;;;6214665;23;20758;-69
2023/03/31 11:41:47;;;;;;;2.90;1.20;;;16.80;56.30;;;;;;6214539;23;20393;-69
2023/03/31 11:44:18;;;;;;;1.50;0.63;;;17.00;55.10;;;;;;6214308;23;20818;-70
2023/03/31 11:46:50;;;;;;;1.40;1.10;;;17.00;55.20;;;;;;6215079;23;20464;-70
2023/03/31 11:49:22;;;;;;;1.63;0.70;;;17.10;54.80;;;;;;6215231;23;20429;-69
2023/03/31 11:51:54;;;;;;;2.17;0.80;;;17.30;55.30;;;;;;6214919;23;20546;-70
2023/03/31 11:54:28;;;;;;;3.63;0.93;;;17.60;55.50;;;;;;6214879;23;21099;-70
2023/03/31 11:56:56;;;;;;;3.83;1.30;;;17.60;53.50;;;;;;6214816;23;20734;-70
2023/03/31 11:59:28;;;;;;;1.83;0.97;;;17.70;54.00;;;;;;6215178;23;20405;-69
2023/03/31 12:02:09;;;;;;;1.83;1.00;;;17.80;54.40;;;;;;6214668;23;20491;-70
2023/03/31 12:04:40;;;;;;;0.83;0.73;;;17.90;53.40;;;;;;6213989;23;20393;-71
2023/03/31 12:07:21;;;;;;;2.33;1.17;;;18.10;53.90;;;;;;6214975;23;20480;-69
2023/03/31 12:09:55;;;;;;;2.73;1.23;;;18.30;53.50;;;;;;6214549;23;20416;-69
2023/03/31 12:12:27;;;;;;;1.50;1.10;;;18.30;53.40;;;;;;6214651;23;20691;-71
2023/03/31 12:15:16;;;;;;;3.77;1.10;;;18.20;53.20;;;;;;6214710;23;20464;-70
2023/03/31 12:17:47;;;;;;;2.23;1.07;;;17.80;54.30;;;;;;6214096;23;20201;-70
2023/03/31 12:20:21;;;;;;;2.63;0.93;;;17.60;55.60;;;;;;6214667;23;20284;-70
2023/03/31 12:22:49;;;;;;;2.50;1.03;;;17.60;55.60;;;;;;6215252;23;20408;-70
2023/03/31 12:25:21;;;;;;;3.53;0.90;;;17.70;55.70;;;;;;6213687;23;20405;-69
2023/03/31 12:27:50;;;;;;;2.70;0.90;;;17.80;55.60;;;;;;6213245;23;20389;-70
2023/03/31 12:30:22;;;;;;;1.80;0.77;;;17.80;55.60;;;;;;6213811;23;20471;-69
2023/03/31 12:32:53;;;;;;;1.87;0.70;;;17.90;55.60;;;;;;6214304;23;20980;-71
2023/03/31 12:35:24;;;;;;;2.73;1.10;;;18.00;55.50;;;;;;6214921;23;20194;-71
2023/03/31 12:38:13;;;;;;;1.70;1.07;;;18.10;55.70;;;;;;6213747;23;20524;-71
2023/03/31 12:40:49;;;;;;;2.37;0.67;;;18.20;55.20;;;;;;6212996;23;20472;-70
2023/03/31 12:43:31;;;;;;;2.40;0.93;;;18.30;55.00;;;;;;6214178;23;20403;-69
2023/03/31 12:46:09;;;;;;;3.30;1.30;;;18.40;55.20;;;;;;6213111;23;20989;-71
2023/03/31 12:48:50;;;;;;;3.30;1.40;;;18.30;55.40;;;;;;6213775;23;20476;-70
2023/03/31 12:51:33;;;;;;;2.17;1.30;;;18.40;55.60;;;;;;6213745;23;20512;-71
2023/03/31 12:54:18;;;;;;;2.17;0.97;;;18.50;55.70;;;;;;6214820;23;20468;-70
2023/03/31 12:57:12;;;;;;;3.63;1.40;;;18.50;55.40;;;;;;6212874;23;20710;-71
2023/03/31 12:59:40;;;;;;;2.20;1.00;;;18.70;56.00;;;;;;6213631;23;20170;-69
2023/03/31 13:02:24;;;;;;;3.00;1.23;;;18.90;55.50;;;;;;6214056;23;20409;-71
2023/03/31 13:04:52;;;;;;;1.20;1.10;;;19.00;54.60;;;;;;6214594;23;20475;-70
2023/03/31 13:07:40;;;;;;;3.50;1.10;;;18.90;54.40;;;;;;6214256;23;20178;-69
2023/03/31 13:10:27;;;;;;;2.37;0.90;;;18.90;54.90;;;;;;6213710;23;20814;-69